Time;durP1;ratioP1;P1;durP2;ratioP2;P2;SDS_P1;SDS_P2;PMS_P1;PMS_P2;Temp;Humidity;BMP_temperature;BMP_pressure;BME280_temperature;BME280_humidity;BME280_pressure;Samples;Min_cycle;Max_cycle;Signal;HPM_P1;HPM_P2
2021/01/22 00:01:50;;;;;;;1.92;0.77;;;;;;;;;;4963189;28;20053;-60
2021/01/22 00:04:16;;;;;;;1.33;0.90;;;;;;;;;;4966985;28;20046;-60
2021/01/22 00:06:44;;;;;;;1.58;0.85;;;;;;;;;;4963696;28;20046;-60
2021/01/22 00:09:10;;;;;;;1.70;0.73;;;;;;;;;;4966827;28;20090;-60
2021/01/22 00:11:36;;;;;;;0.65;0.65;;;;;;;;;;4963704;28;20049;-61
2021/01/22 00:14:02;;;;;;;4.35;0.90;;;;;;;;;;4966731;28;20078;-60
2021/01/22 00:16:28;;;;;;;1.17;0.90;;;;;;;;;;4966819;28;20085;-60
2021/01/22 00:18:54;;;;;;;2.45;0.80;;;;;;;;;;4963047;28;20113;-60
2021/01/22 00:21:21;;;;;;;0.80;0.60;;;;;;;;;;4966863;28;20109;-60
2021/01/22 00:23:48;;;;;;;0.98;0.60;;;;;;;;;;4982526;28;20049;-60
2021/01/22 00:26:14;;;;;;;0.55;0.40;;;;;;;;;;4967719;28;20189;-60
2021/01/22 00:28:40;;;;;;;0.50;0.50;;;;;;;;;;5000735;28;20062;-60
2021/01/22 00:31:06;;;;;;;0.60;0.60;;;;;;;;;;5007037;28;20061;-60
2021/01/22 00:33:32;;;;;;;0.65;0.65;;;;;;;;;;5003404;28;20076;-60
2021/01/22 00:35:58;;;;;;;1.55;0.60;;;;;;;;;;5007205;28;20041;-60
2021/01/22 00:38:24;;;;;;;1.42;0.47;;;;;;;;;;5003138;28;20130;-60
2021/01/22 00:40:51;;;;;;;0.82;0.55;;;;;;;;;;5006711;28;20037;-60
2021/01/22 00:43:17;;;;;;;2.03;0.40;;;;;;;;;;5003785;28;20038;-60
2021/01/22 00:45:43;;;;;;;1.13;0.43;;;;;;;;;;5006917;28;20060;-60
2021/01/22 00:48:09;;;;;;;3.65;0.60;;;;;;;;;;5002917;28;20049;-60
2021/01/22 00:50:36;;;;;;;0.70;0.40;;;;;;;;;;5007023;28;20111;-61
2021/01/22 00:53:02;;;;;;;1.60;0.32;;;;;;;;;;5000315;28;20194;-60
2021/01/22 00:55:28;;;;;;;1.05;0.40;;;;;;;;;;4986609;28;20049;-60
2021/01/22 00:57:55;;;;;;;0.55;0.40;;;;;;;;;;5005136;28;20124;-61
2021/01/22 01:00:21;;;;;;;1.67;0.63;;;;;;;;;;5001359;28;20046;-60
2021/01/22 01:02:47;;;;;;;1.48;0.70;;;;;;;;;;5005977;28;20057;-60
2021/01/22 01:05:13;;;;;;;3.13;0.47;;;;;;;;;;5020364;28;20061;-61
2021/01/22 01:07:39;;;;;;;0.85;0.52;;;;;;;;;;5004632;28;20056;-60
2021/01/22 01:10:06;;;;;;;3.45;0.63;;;;;;;;;;5000918;28;20042;-61
2021/01/22 01:12:32;;;;;;;0.35;0.35;;;;;;;;;;5005723;28;20049;-61
2021/01/22 01:14:59;;;;;;;2.17;0.60;;;;;;;;;;5002837;28;20030;-61
2021/01/22 01:17:25;;;;;;;1.35;0.93;;;;;;;;;;5005824;28;20053;-60
2021/01/22 01:19:52;;;;;;;1.95;0.60;;;;;;;;;;5002797;28;20041;-60
2021/01/22 01:22:17;;;;;;;1.42;0.70;;;;;;;;;;5006930;28;20061;-60
2021/01/22 01:24:43;;;;;;;1.60;0.70;;;;;;;;;;5003965;28;20062;-60
2021/01/22 01:27:09;;;;;;;1.42;0.80;;;;;;;;;;5006949;28;20040;-60
2021/01/22 01:29:35;;;;;;;0.82;0.80;;;;;;;;;;5002412;28;20090;-60
2021/01/22 01:32:02;;;;;;;2.53;1.10;;;;;;;;;;5005233;28;20034;-60
2021/01/22 01:34:28;;;;;;;2.13;0.88;;;;;;;;;;5006287;28;20115;-60
2021/01/22 01:36:54;;;;;;;2.17;1.10;;;;;;;;;;5002016;28;20053;-60
2021/01/22 01:39:20;;;;;;;2.10;0.95;;;;;;;;;;5022708;28;20045;-60
2021/01/22 01:41:46;;;;;;;1.52;0.95;;;;;;;;;;5002316;28;20057;-60
2021/01/22 01:44:12;;;;;;;1.08;0.80;;;;;;;;;;5005305;28;20037;-60
2021/01/22 01:46:38;;;;;;;1.98;1.00;;;;;;;;;;5019029;28;20065;-60
2021/01/22 01:49:05;;;;;;;1.05;0.90;;;;;;;;;;5005874;28;20041;-60
2021/01/22 01:51:31;;;;;;;5.93;1.25;;;;;;;;;;5001995;28;20037;-60
2021/01/22 01:53:57;;;;;;;3.03;1.35;;;;;;;;;;5006506;28;20054;-60
2021/01/22 01:56:23;;;;;;;1.35;0.90;;;;;;;;;;5001498;28;20038;-60
2021/01/22 01:58:50;;;;;;;2.90;1.10;;;;;;;;;;5005706;28;20046;-60
2021/01/22 02:01:17;;;;;;;2.50;1.27;;;;;;;;;;5018092;28;20061;-60
2021/01/22 02:03:43;;;;;;;3.15;1.20;;;;;;;;;;5022043;28;20052;-60
2021/01/22 02:06:10;;;;;;;3.30;1.20;;;;;;;;;;4994296;28;20070;-61
2021/01/22 02:08:37;;;;;;;3.15;1.23;;;;;;;;;;4984172;28;20095;-61
2021/01/22 02:11:03;;;;;;;3.88;1.50;;;;;;;;;;4983397;28;20057;-60
2021/01/22 02:13:30;;;;;;;6.78;1.60;;;;;;;;;;4985123;28;20038;-60
2021/01/22 02:15:56;;;;;;;4.93;1.85;;;;;;;;;;4984697;28;20053;-60
2021/01/22 02:18:24;;;;;;;3.90;1.67;;;;;;;;;;4983145;28;20038;-61
2021/01/22 02:20:56;;;;;;;4.05;2.00;;;;;;;;;;5003141;28;20044;-61
2021/01/22 02:23:26;;;;;;;5.25;2.08;;;;;;;;;;4982345;28;20061;-61
2021/01/22 02:25:55;;;;;;;4.38;1.98;;;;;;;;;;4985567;28;20053;-61
2021/01/22 02:28:22;;;;;;;4.60;1.75;;;;;;;;;;4981921;28;20098;-61
2021/01/22 02:30:49;;;;;;;3.95;1.90;;;;;;;;;;4985159;28;20052;-61
2021/01/22 02:33:16;;;;;;;4.53;2.03;;;;;;;;;;4981298;28;20059;-61
2021/01/22 02:35:42;;;;;;;6.43;2.38;;;;;;;;;;4985350;28;20049;-61
2021/01/22 02:38:10;;;;;;;5.47;1.80;;;;;;;;;;4982715;28;20045;-61
2021/01/22 02:40:37;;;;;;;6.60;2.38;;;;;;;;;;4985392;28;20038;-60
2021/01/22 02:43:03;;;;;;;4.03;1.75;;;;;;;;;;4982190;28;20042;-60
2021/01/22 02:45:31;;;;;;;5.07;2.15;;;;;;;;;;4985229;28;20046;-60
2021/01/22 02:47:57;;;;;;;5.35;2.05;;;;;;;;;;4982517;28;20041;-61
2021/01/22 02:50:30;;;;;;;5.30;1.98;;;;;;;;;;4986340;28;20053;-60
2021/01/22 02:52:58;;;;;;;4.40;2.20;;;;;;;;;;4983163;28;20081;-60
2021/01/22 02:55:24;;;;;;;6.40;2.38;;;;;;;;;;4986229;28;20030;-61
2021/01/22 02:57:52;;;;;;;5.35;2.15;;;;;;;;;;4998661;28;20034;-60
2021/01/22 03:00:21;;;;;;;5.32;2.00;;;;;;;;;;4983382;28;20049;-60
2021/01/22 03:02:50;;;;;;;5.88;2.10;;;;;;;;;;4984156;28;20135;-60
2021/01/22 03:05:17;;;;;;;3.60;1.60;;;;;;;;;;5000444;28;20085;-60
2021/01/22 03:07:45;;;;;;;5.13;1.77;;;;;;;;;;5002759;28;20030;-60
2021/01/22 03:10:13;;;;;;;3.15;1.40;;;;;;;;;;5000046;28;20050;-60
2021/01/22 03:12:40;;;;;;;3.85;1.50;;;;;;;;;;5004886;28;20049;-60
2021/01/22 03:15:06;;;;;;;3.65;1.35;;;;;;;;;;4985674;28;20058;-60
2021/01/22 03:17:32;;;;;;;2.78;1.15;;;;;;;;;;4997778;28;20042;-60
2021/01/22 03:19:59;;;;;;;2.88;1.20;;;;;;;;;;4979873;28;20046;-60
2021/01/22 03:22:25;;;;;;;3.55;1.30;;;;;;;;;;4982830;28;20038;-60
2021/01/22 03:24:51;;;;;;;3.63;1.50;;;;;;;;;;4996455;28;20046;-60
2021/01/22 03:27:19;;;;;;;3.13;1.23;;;;;;;;;;4983162;28;20082;-60
2021/01/22 03:29:46;;;;;;;2.75;1.27;;;;;;;;;;4979683;28;20049;-60
2021/01/22 03:32:12;;;;;;;2.58;0.98;;;;;;;;;;4982842;28;20122;-60
2021/01/22 03:34:38;;;;;;;3.38;1.10;;;;;;;;;;5000332;28;20073;-60
2021/01/22 03:37:05;;;;;;;2.75;0.93;;;;;;;;;;4986005;28;20177;-60
2021/01/22 03:39:34;;;;;;;2.90;0.88;;;;;;;;;;5000565;28;20058;-60
2021/01/22 03:42:02;;;;;;;;;;;;;;;;;;4971786;28;20046;-60
2021/01/22 03:44:28;;;;;;;2.38;0.75;;;;;;;;;;4986622;28;19949;-60
2021/01/22 03:46:54;;;;;;;1.55;0.68;;;;;;;;;;5002021;28;20046;-60
2021/01/22 03:49:20;;;;;;;1.40;0.65;;;;;;;;;;4988390;28;20042;-60
2021/01/22 03:51:46;;;;;;;1.20;0.60;;;;;;;;;;4999856;28;20053;-61
2021/01/22 03:54:13;;;;;;;0.70;0.60;;;;;;;;;;4987872;28;20042;-60
2021/01/22 03:56:39;;;;;;;1.02;0.40;;;;;;;;;;4984471;28;20104;-61
2021/01/22 03:59:05;;;;;;;1.23;0.52;;;;;;;;;;5019116;28;20034;-60
2021/01/22 04:01:31;;;;;;;1.52;0.50;;;;;;;;;;5009629;28;20162;-60
2021/01/22 04:03:57;;;;;;;4.82;0.80;;;;;;;;;;4987298;28;20080;-60
2021/01/22 04:06:24;;;;;;;3.13;0.60;;;;;;;;;;5001406;28;20050;-60
2021/01/22 04:08:50;;;;;;;0.75;0.50;;;;;;;;;;4987639;28;20046;-60
2021/01/22 04:11:17;;;;;;;0.80;0.50;;;;;;;;;;4982538;28;20128;-60
2021/01/22 04:13:44;;;;;;;5.45;0.95;;;;;;;;;;4987873;28;20046;-60
2021/01/22 04:16:11;;;;;;;2.38;0.75;;;;;;;;;;4984844;28;20058;-60
2021/01/22 04:18:39;;;;;;;2.40;0.75;;;;;;;;;;4988614;28;20042;-60
2021/01/22 04:21:05;;;;;;;5.00;0.90;;;;;;;;;;4986706;28;20050;-60
2021/01/22 04:23:31;;;;;;;1.65;0.90;;;;;;;;;;4986356;28;20042;-62
2021/01/22 04:25:57;;;;;;;1.27;0.80;;;;;;;;;;4988731;28;20061;-60
2021/01/22 04:28:27;;;;;;;1.45;0.90;;;;;;;;;;4997587;28;20057;-61
2021/01/22 04:30:53;;;;;;;1.73;0.80;;;;;;;;;;5004067;28;20050;-60
2021/01/22 04:33:19;;;;;;;4.50;1.00;;;;;;;;;;4988518;28;20030;-60
2021/01/22 04:35:45;;;;;;;5.40;1.10;;;;;;;;;;4986774;28;20054;-60
2021/01/22 04:38:11;;;;;;;0.90;0.65;;;;;;;;;;4983532;28;20124;-60
2021/01/22 04:40:38;;;;;;;5.80;1.00;;;;;;;;;;4987845;28;20039;-60
2021/01/22 04:43:04;;;;;;;3.13;1.00;;;;;;;;;;4983884;28;20035;-61
2021/01/22 04:45:31;;;;;;;2.40;1.13;;;;;;;;;;5003087;28;20116;-60
2021/01/22 04:47:58;;;;;;;2.55;1.00;;;;;;;;;;4999087;28;20088;-60
2021/01/22 04:50:26;;;;;;;2.05;1.00;;;;;;;;;;4986979;28;20046;-60
2021/01/22 04:52:54;;;;;;;4.90;1.30;;;;;;;;;;4983766;28;20044;-60
2021/01/22 04:55:20;;;;;;;;;;;;;;;;;;4995051;28;20035;-60
2021/01/22 04:57:47;;;;;;;2.50;1.48;;;;;;;;;;4962403;28;19941;-61
2021/01/22 05:00:14;;;;;;;2.83;1.40;;;;;;;;;;4982791;28;20043;-60
2021/01/22 05:02:41;;;;;;;2.88;1.10;;;;;;;;;;4997825;28;20035;-60
2021/01/22 05:05:08;;;;;;;3.22;1.35;;;;;;;;;;4968360;28;20042;-61
2021/01/22 05:07:34;;;;;;;3.95;1.67;;;;;;;;;;4998144;28;20044;-60
2021/01/22 05:10:00;;;;;;;4.13;1.58;;;;;;;;;;4982569;28;20034;-60
2021/01/22 05:12:34;;;;;;;3.95;1.30;;;;;;;;;;4966492;28;20057;-60
2021/01/22 05:15:11;;;;;;;3.90;1.42;;;;;;;;;;4979295;28;20071;-60
2021/01/22 05:17:51;;;;;;;5.30;1.63;;;;;;;;;;4966640;28;20046;-60
2021/01/22 05:20:25;;;;;;;5.57;1.70;;;;;;;;;;4962869;28;20046;-60
2021/01/22 05:22:51;;;;;;;9.82;1.92;;;;;;;;;;4999519;28;20051;-60
2021/01/22 05:25:17;;;;;;;4.70;1.92;;;;;;;;;;4969234;28;20132;-59
2021/01/22 05:27:47;;;;;;;6.07;2.20;;;;;;;;;;4995676;28;20050;-60
2021/01/22 05:30:15;;;;;;;7.20;1.88;;;;;;;;;;4996002;28;20046;-60
2021/01/22 05:32:41;;;;;;;10.93;2.58;;;;;;;;;;4966750;28;20129;-60
2021/01/22 05:35:09;;;;;;;8.57;2.92;;;;;;;;;;4969750;28;20038;-60
2021/01/22 05:37:49;;;;;;;7.35;2.75;;;;;;;;;;4984742;28;20046;-60
2021/01/22 05:40:15;;;;;;;7.10;2.70;;;;;;;;;;4977556;28;20054;-59
2021/01/22 05:42:48;;;;;;;7.43;3.22;;;;;;;;;;4995338;28;20124;-60
2021/01/22 05:45:14;;;;;;;7.20;3.28;;;;;;;;;;4978624;28;20046;-59
2021/01/22 05:47:40;;;;;;;9.95;3.22;;;;;;;;;;4998625;28;20035;-60
2021/01/22 05:50:08;;;;;;;9.02;3.75;;;;;;;;;;4985255;28;20034;-61
2021/01/22 05:52:34;;;;;;;10.80;4.30;;;;;;;;;;5001553;28;20042;-60
2021/01/22 05:55:17;;;;;;;12.05;4.18;;;;;;;;;;4996746;28;20066;-60
2021/01/22 05:57:43;;;;;;;8.43;3.80;;;;;;;;;;4984585;28;20039;-60
2021/01/22 06:00:12;;;;;;;9.52;4.68;;;;;;;;;;4995768;28;20075;-60
2021/01/22 06:02:38;;;;;;;10.48;4.68;;;;;;;;;;4982875;28;20046;-60
2021/01/22 06:05:15;;;;;;;13.63;4.85;;;;;;;;;;4982144;28;20034;-60
2021/01/22 06:07:42;;;;;;;9.27;4.28;;;;;;;;;;4974400;28;20046;-60
2021/01/22 06:10:15;;;;;;;8.32;3.92;;;;;;;;;;4978395;28;20039;-60
2021/01/22 06:12:44;;;;;;;11.48;4.88;;;;;;;;;;4963145;28;20042;-61
2021/01/22 06:15:11;;;;;;;10.70;4.30;;;;;;;;;;4999608;28;20067;-61
2021/01/22 06:17:38;;;;;;;10.60;3.72;;;;;;;;;;4994547;28;20109;-60
2021/01/22 06:20:06;;;;;;;13.25;5.03;;;;;;;;;;4984157;28;20067;-60
2021/01/22 06:22:36;;;;;;;9.45;4.50;;;;;;;;;;4995962;28;20042;-61
2021/01/22 06:25:02;;;;;;;14.10;4.80;;;;;;;;;;4964560;28;20050;-60
2021/01/22 06:27:28;;;;;;;10.63;4.70;;;;;;;;;;4963312;28;20125;-61
2021/01/22 06:29:56;;;;;;;12.95;4.93;;;;;;;;;;4965132;28;20057;-60
2021/01/22 06:32:22;;;;;;;10.35;4.47;;;;;;;;;;4963002;28;20035;-61
2021/01/22 06:34:48;;;;;;;11.35;5.20;;;;;;;;;;4966243;28;20075;-60
2021/01/22 06:37:14;;;;;;;8.98;4.00;;;;;;;;;;4961105;28;20038;-60
2021/01/22 06:39:42;;;;;;;9.45;4.15;;;;;;;;;;4949937;28;20045;-60
2021/01/22 06:42:09;;;;;;;12.43;4.88;;;;;;;;;;4962006;28;20050;-61
2021/01/22 06:44:35;;;;;;;9.25;4.38;;;;;;;;;;4999625;28;20105;-61
2021/01/22 06:47:10;;;;;;;9.98;3.85;;;;;;;;;;4963656;28;20027;-60
2021/01/22 06:49:39;;;;;;;13.38;4.03;;;;;;;;;;4966605;28;20043;-60
2021/01/22 06:52:09;;;;;;;8.10;3.60;;;;;;;;;;4994742;28;20042;-60
2021/01/22 06:54:55;;;;;;;7.53;3.50;;;;;;;;;;4965057;28;20049;-60
2021/01/22 06:57:22;;;;;;;14.70;4.20;;;;;;;;;;4994871;28;20054;-60
2021/01/22 06:59:48;;;;;;;13.27;4.35;;;;;;;;;;4966283;28;20053;-60
2021/01/22 07:02:34;;;;;;;13.10;4.05;;;;;;;;;;4966106;28;20045;-60
2021/01/22 07:05:00;;;;;;;10.05;3.92;;;;;;;;;;4979161;28;20054;-60
2021/01/22 07:07:47;;;;;;;10.10;3.95;;;;;;;;;;4981193;28;20131;-60
2021/01/22 07:10:14;;;;;;;8.20;3.53;;;;;;;;;;4968407;28;20042;-60
2021/01/22 07:12:41;;;;;;;7.63;3.60;;;;;;;;;;4968557;28;20039;-60
2021/01/22 07:15:27;;;;;;;9.75;3.88;;;;;;;;;;4985956;28;20050;-61
2021/01/22 07:17:55;;;;;;;9.85;4.20;;;;;;;;;;4989172;28;20055;-60
2021/01/22 07:20:22;;;;;;;11.40;4.03;;;;;;;;;;5004790;28;20030;-60
2021/01/22 07:22:53;;;;;;;11.88;4.18;;;;;;;;;;4987608;28;20057;-60
2021/01/22 07:25:35;;;;;;;10.90;3.97;;;;;;;;;;4986598;28;20144;-60
2021/01/22 07:28:07;;;;;;;14.32;3.63;;;;;;;;;;4985508;28;20042;-60
2021/01/22 07:30:37;;;;;;;10.13;3.67;;;;;;;;;;5001790;28;20057;-60
2021/01/22 07:33:18;;;;;;;10.43;3.60;;;;;;;;;;5024051;28;20127;-60
2021/01/22 07:35:44;;;;;;;10.35;3.40;;;;;;;;;;4984349;28;20069;-60
2021/01/22 07:38:21;;;;;;;7.38;3.45;;;;;;;;;;4967159;28;20212;-59
2021/01/22 07:40:47;;;;;;;12.30;4.60;;;;;;;;;;4970880;28;20112;-60
2021/01/22 07:43:15;;;;;;;10.63;3.95;;;;;;;;;;4981431;28;20050;-59
2021/01/22 07:45:41;;;;;;;8.75;4.07;;;;;;;;;;4984468;28;20169;-60
2021/01/22 07:48:07;;;;;;;13.77;4.72;;;;;;;;;;5011443;28;20045;-60
2021/01/22 07:50:35;;;;;;;16.90;6.85;;;;;;;;;;5007615;28;20054;-60
2021/01/22 07:53:02;;;;;;;11.15;4.15;;;;;;;;;;4988260;28;20152;-60
2021/01/22 07:55:31;;;;;;;18.17;4.25;;;;;;;;;;4981846;28;20114;-60
2021/01/22 07:58:04;;;;;;;12.80;4.32;;;;;;;;;;4985325;28;20038;-60
2021/01/22 08:00:37;;;;;;;9.32;3.47;;;;;;;;;;5001505;28;20042;-60
2021/01/22 08:03:03;;;;;;;9.02;3.50;;;;;;;;;;4985128;28;20058;-60
2021/01/22 08:05:30;;;;;;;9.27;4.00;;;;;;;;;;4986160;28;20127;-60
2021/01/22 08:07:56;;;;;;;11.85;4.20;;;;;;;;;;5022590;28;20080;-60
2021/01/22 08:10:28;;;;;;;10.68;4.80;;;;;;;;;;4999826;28;20038;-59
2021/01/22 08:12:55;;;;;;;8.90;3.90;;;;;;;;;;4988024;28;20049;-60
2021/01/22 08:15:21;;;;;;;11.43;4.15;;;;;;;;;;4984427;28;20046;-60
2021/01/22 08:17:49;;;;;;;7.90;3.20;;;;;;;;;;4986210;28;20030;-60
2021/01/22 08:20:16;;;;;;;10.03;4.33;;;;;;;;;;4986276;28;20046;-60
2021/01/22 08:22:42;;;;;;;11.63;3.72;;;;;;;;;;5002477;28;20286;-60
2021/01/22 08:25:12;;;;;;;8.35;3.53;;;;;;;;;;4991381;28;20096;-60
2021/01/22 08:27:38;;;;;;;7.72;3.35;;;;;;;;;;4982544;28;20042;-60
2021/01/22 08:30:07;;;;;;;12.25;3.88;;;;;;;;;;4977795;28;20043;-60
2021/01/22 08:32:33;;;;;;;8.93;2.88;;;;;;;;;;4974247;28;20084;-60
2021/01/22 08:35:00;;;;;;;9.10;3.25;;;;;;;;;;4972121;28;20113;-60
2021/01/22 08:37:26;;;;;;;9.13;3.70;;;;;;;;;;4981853;28;20046;-60
2021/01/22 08:39:58;;;;;;;7.10;3.30;;;;;;;;;;4984253;28;20034;-60
2021/01/22 08:42:24;;;;;;;9.43;3.78;;;;;;;;;;4989586;28;20038;-60
2021/01/22 08:44:54;;;;;;;14.38;4.05;;;;;;;;;;4983862;28;20042;-60
2021/01/22 08:47:20;;;;;;;10.35;3.33;;;;;;;;;;4981578;28;20053;-60
2021/01/22 08:49:53;;;;;;;8.40;3.45;;;;;;;;;;5000121;28;20049;-60
2021/01/22 08:52:20;;;;;;;8.20;3.65;;;;;;;;;;4996514;28;20046;-60
2021/01/22 08:54:49;;;;;;;8.07;3.20;;;;;;;;;;4983403;28;20054;-60
2021/01/22 08:57:15;;;;;;;11.88;3.78;;;;;;;;;;4979807;28;20046;-61
2021/01/22 08:59:52;;;;;;;16.25;5.50;;;;;;;;;;5000383;28;20057;-61
2021/01/22 09:02:37;;;;;;;10.52;3.58;;;;;;;;;;4981752;28;20114;-60
2021/01/22 09:05:03;;;;;;;8.55;2.90;;;;;;;;;;5018762;28;20038;-60
2021/01/22 09:07:30;;;;;;;8.98;2.95;;;;;;;;;;4980521;28;20133;-60
2021/01/22 09:09:58;;;;;;;11.90;3.55;;;;;;;;;;4999275;28;20102;-60
2021/01/22 09:12:26;;;;;;;8.38;3.25;;;;;;;;;;4997393;28;20050;-59
2021/01/22 09:14:55;;;;;;;9.40;3.70;;;;;;;;;;4998801;28;20090;-59
2021/01/22 09:17:22;;;;;;;8.60;2.88;;;;;;;;;;4997997;28;20053;-59
2021/01/22 09:19:59;;;;;;;10.60;4.32;;;;;;;;;;4996514;28;20042;-59
2021/01/22 09:22:30;;;;;;;6.47;3.28;;;;;;;;;;4982308;28;20049;-58
2021/01/22 09:24:57;;;;;;;10.40;3.30;;;;;;;;;;4961703;28;20061;-59
2021/01/22 09:27:23;;;;;;;10.20;3.47;;;;;;;;;;4981794;28;20038;-59
2021/01/22 09:29:49;;;;;;;8.98;3.08;;;;;;;;;;4977873;28;20081;-59
2021/01/22 09:32:15;;;;;;;13.68;4.25;;;;;;;;;;4993298;28;20042;-59
2021/01/22 09:34:41;;;;;;;12.90;4.57;;;;;;;;;;5001382;28;20054;-59
2021/01/22 09:37:07;;;;;;;11.60;3.90;;;;;;;;;;4998109;28;20061;-59
2021/01/22 09:39:34;;;;;;;11.73;3.47;;;;;;;;;;4994305;28;20266;-59
2021/01/22 09:42:00;;;;;;;12.98;3.15;;;;;;;;;;4998089;28;20053;-59
2021/01/22 09:44:26;;;;;;;8.38;3.60;;;;;;;;;;4993826;28;20043;-59
2021/01/22 09:46:52;;;;;;;9.85;3.33;;;;;;;;;;4966187;28;20050;-59
2021/01/22 09:49:19;;;;;;;5.82;2.75;;;;;;;;;;4999135;28;20061;-59
2021/01/22 09:51:45;;;;;;;8.35;2.85;;;;;;;;;;5019019;28;20065;-59
2021/01/22 09:54:11;;;;;;;7.13;2.97;;;;;;;;;;5011985;28;20104;-59
2021/01/22 09:56:37;;;;;;;12.27;3.45;;;;;;;;;;4997703;28;20122;-59
2021/01/22 09:59:09;;;;;;;8.98;2.88;;;;;;;;;;4984336;28;20061;-59
2021/01/22 10:01:35;;;;;;;12.13;3.20;;;;;;;;;;4995792;28;20112;-59
2021/01/22 10:04:01;;;;;;;9.95;2.85;;;;;;;;;;4999499;28;20038;-60
2021/01/22 10:06:27;;;;;;;8.07;2.78;;;;;;;;;;5003873;28;20044;-60
2021/01/22 10:08:53;;;;;;;10.95;3.40;;;;;;;;;;4987279;28;20034;-59
2021/01/22 10:11:19;;;;;;;10.23;2.72;;;;;;;;;;4982928;28;20078;-60
2021/01/22 10:13:45;;;;;;;10.95;3.40;;;;;;;;;;5020755;28;20046;-60
2021/01/22 10:16:12;;;;;;;9.95;2.92;;;;;;;;;;4983926;28;20061;-59
2021/01/22 10:18:38;;;;;;;9.65;3.50;;;;;;;;;;5017382;28;20073;-60
2021/01/22 10:21:05;;;;;;;8.38;3.13;;;;;;;;;;5015215;28;20038;-60
2021/01/22 10:23:31;;;;;;;9.82;3.22;;;;;;;;;;4981013;28;20049;-59
2021/01/22 10:25:56;;;;;;;9.13;3.00;;;;;;;;;;4967672;28;20075;-59
2021/01/22 10:28:25;;;;;;;12.50;3.90;;;;;;;;;;5002199;28;20030;-60
2021/01/22 10:30:51;;;;;;;12.23;3.97;;;;;;;;;;4978625;28;20055;-62
2021/01/22 10:33:18;;;;;;;10.77;3.08;;;;;;;;;;4990415;28;20109;-62
2021/01/22 10:35:44;;;;;;;10.18;3.00;;;;;;;;;;5014910;28;20035;-62
2021/01/22 10:38:11;;;;;;;6.53;2.80;;;;;;;;;;4985050;28;20030;-62
2021/01/22 10:40:37;;;;;;;8.98;3.00;;;;;;;;;;4985046;28;20044;-62
2021/01/22 10:43:03;;;;;;;6.07;2.85;;;;;;;;;;4980777;28;20045;-62
2021/01/22 10:45:29;;;;;;;10.52;2.75;;;;;;;;;;5020791;28;20042;-62
2021/01/22 10:47:55;;;;;;;9.00;3.28;;;;;;;;;;4983873;28;20061;-61
2021/01/22 10:50:23;;;;;;;9.23;3.08;;;;;;;;;;4988607;28;20077;-62
2021/01/22 10:52:49;;;;;;;11.18;2.92;;;;;;;;;;4983798;28;20161;-62
2021/01/22 10:55:18;;;;;;;7.85;2.92;;;;;;;;;;4985292;28;20069;-62
2021/01/22 10:57:45;;;;;;;10.23;2.65;;;;;;;;;;4992853;28;20057;-62
2021/01/22 11:00:12;;;;;;;9.88;2.80;;;;;;;;;;4987814;28;20042;-62
2021/01/22 11:02:38;;;;;;;7.78;2.70;;;;;;;;;;4984148;28;20038;-62
2021/01/22 11:05:05;;;;;;;7.13;2.88;;;;;;;;;;4988282;28;20076;-62
2021/01/22 11:07:34;;;;;;;12.02;2.60;;;;;;;;;;4965957;28;20079;-62
2021/01/22 11:10:00;;;;;;;11.95;2.55;;;;;;;;;;4968057;28;20043;-62
2021/01/22 11:12:26;;;;;;;12.07;2.75;;;;;;;;;;4996480;28;20050;-62
2021/01/22 11:14:55;;;;;;;8.15;2.75;;;;;;;;;;4984612;28;20031;-62
2021/01/22 11:17:21;;;;;;;8.65;2.80;;;;;;;;;;4980809;28;20042;-62
2021/01/22 11:19:47;;;;;;;9.52;3.00;;;;;;;;;;4967255;28;20054;-62
2021/01/22 11:22:13;;;;;;;11.68;2.45;;;;;;;;;;5000650;28;20031;-62
2021/01/22 11:24:40;;;;;;;9.15;2.88;;;;;;;;;;4964677;28;20034;-62
2021/01/22 11:27:06;;;;;;;6.97;2.20;;;;;;;;;;4968311;28;20045;-62
2021/01/22 11:29:32;;;;;;;7.15;2.38;;;;;;;;;;4975637;28;20049;-62
2021/01/22 11:31:58;;;;;;;4.90;2.05;;;;;;;;;;4984013;28;20053;-62
2021/01/22 11:34:24;;;;;;;8.48;2.63;;;;;;;;;;4971858;28;20042;-62
2021/01/22 11:36:50;;;;;;;7.78;2.75;;;;;;;;;;4970119;28;20124;-62
2021/01/22 11:39:19;;;;;;;5.72;2.13;;;;;;;;;;4964669;28;20062;-62
2021/01/22 11:41:46;;;;;;;11.02;2.35;;;;;;;;;;4970321;28;20023;-62
2021/01/22 11:44:12;;;;;;;6.75;2.42;;;;;;;;;;4964846;28;20034;-62
2021/01/22 11:46:40;;;;;;;11.20;2.53;;;;;;;;;;5000913;28;20045;-65
2021/01/22 11:49:06;;;;;;;4.82;1.92;;;;;;;;;;4965924;28;20049;-62
2021/01/22 11:51:32;;;;;;;11.63;2.20;;;;;;;;;;4984802;28;20045;-62
2021/01/22 11:53:58;;;;;;;8.52;2.55;;;;;;;;;;4981617;28;20059;-62
2021/01/22 11:56:26;;;;;;;6.28;2.40;;;;;;;;;;4967380;28;20126;-62
2021/01/22 11:58:53;;;;;;;8.13;2.08;;;;;;;;;;4966208;28;20045;-62
2021/01/22 12:01:22;;;;;;;6.40;2.22;;;;;;;;;;4966669;28;20042;-62
2021/01/22 12:03:48;;;;;;;6.05;2.45;;;;;;;;;;4966134;28;20034;-61
2021/01/22 12:06:14;;;;;;;10.80;2.80;;;;;;;;;;4972792;28;20034;-62
2021/01/22 12:08:41;;;;;;;7.25;2.13;;;;;;;;;;4986772;28;20074;-62
2021/01/22 12:11:07;;;;;;;10.75;2.35;;;;;;;;;;4982645;28;20046;-62
2021/01/22 12:13:33;;;;;;;9.32;2.45;;;;;;;;;;4987136;28;20075;-62
2021/01/22 12:16:00;;;;;;;8.88;2.25;;;;;;;;;;4982069;28;20034;-63
2021/01/22 12:18:26;;;;;;;12.98;3.20;;;;;;;;;;4985156;28;20104;-62
2021/01/22 12:20:52;;;;;;;11.38;2.83;;;;;;;;;;5015411;28;20053;-62
2021/01/22 12:23:18;;;;;;;10.70;2.20;;;;;;;;;;5020035;28;20045;-62
2021/01/22 12:25:46;;;;;;;4.93;1.83;;;;;;;;;;4983641;28;20105;-62
2021/01/22 12:28:12;;;;;;;8.57;1.83;;;;;;;;;;4985226;28;20045;-61
2021/01/22 12:30:38;;;;;;;4.40;1.27;;;;;;;;;;5017376;28;20034;-62
2021/01/22 12:33:05;;;;;;;5.78;1.83;;;;;;;;;;4986580;28;20042;-62
2021/01/22 12:35:31;;;;;;;9.93;1.88;;;;;;;;;;5017898;28;20053;-62
2021/01/22 12:37:58;;;;;;;12.75;1.75;;;;;;;;;;4987223;28;20034;-62
2021/01/22 12:40:24;;;;;;;11.02;1.77;;;;;;;;;;4985371;28;20038;-60
2021/01/22 12:42:50;;;;;;;10.98;1.77;;;;;;;;;;5017278;28;20027;-60
2021/01/22 12:45:16;;;;;;;10.38;1.83;;;;;;;;;;4986858;28;20038;-60
2021/01/22 12:47:43;;;;;;;6.18;1.42;;;;;;;;;;5017831;28;20108;-60
2021/01/22 12:50:11;;;;;;;5.85;1.52;;;;;;;;;;5019377;28;20108;-60
2021/01/22 12:52:38;;;;;;;3.78;1.30;;;;;;;;;;5014856;28;20081;-59
2021/01/22 12:55:04;;;;;;;7.28;1.70;;;;;;;;;;4986645;28;20096;-60
2021/01/22 12:57:30;;;;;;;5.32;1.08;;;;;;;;;;4983093;28;20034;-60
2021/01/22 12:59:56;;;;;;;10.48;1.48;;;;;;;;;;4986672;28;20045;-60
2021/01/22 13:02:22;;;;;;;5.70;1.20;;;;;;;;;;4983496;28;20037;-60
2021/01/22 13:04:48;;;;;;;10.05;1.60;;;;;;;;;;4986343;28;20030;-60
2021/01/22 13:07:15;;;;;;;7.57;1.50;;;;;;;;;;4981889;28;20030;-60
2021/01/22 13:09:47;;;;;;;4.20;1.25;;;;;;;;;;5017797;28;20049;-60
2021/01/22 13:12:13;;;;;;;4.45;1.60;;;;;;;;;;4978551;28;20057;-60
2021/01/22 13:14:40;;;;;;;7.82;1.60;;;;;;;;;;4966127;28;20159;-60
2021/01/22 13:17:06;;;;;;;6.85;1.27;;;;;;;;;;4962447;28;20097;-60
2021/01/22 13:19:32;;;;;;;8.77;1.25;;;;;;;;;;4983501;28;20054;-60
2021/01/22 13:21:59;;;;;;;5.93;1.10;;;;;;;;;;4985324;28;20061;-60
2021/01/22 13:24:26;;;;;;;9.00;1.65;;;;;;;;;;4981737;28;20042;-60
2021/01/22 13:26:52;;;;;;;8.43;1.27;;;;;;;;;;5002301;28;20042;-60
2021/01/22 13:29:19;;;;;;;15.27;1.90;;;;;;;;;;4964990;28;20117;-60
2021/01/22 13:31:45;;;;;;;15.98;3.55;;;;;;;;;;4967600;28;20070;-60
2021/01/22 13:34:11;;;;;;;14.68;2.10;;;;;;;;;;4976075;28;20058;-60
2021/01/22 13:36:37;;;;;;;5.32;1.65;;;;;;;;;;4986698;28;20091;-60
2021/01/22 13:39:04;;;;;;;6.28;1.35;;;;;;;;;;4972875;28;20046;-60
2021/01/22 13:41:31;;;;;;;9.30;1.38;;;;;;;;;;4966269;28;20031;-60
2021/01/22 13:43:58;;;;;;;13.38;1.70;;;;;;;;;;4962370;28;20043;-60
2021/01/22 13:46:24;;;;;;;8.52;1.80;;;;;;;;;;4999195;28;20046;-60
2021/01/22 13:48:50;;;;;;;9.15;2.38;;;;;;;;;;4986302;28;20112;-60
2021/01/22 13:51:16;;;;;;;6.72;1.38;;;;;;;;;;4985805;28;20046;-60
2021/01/22 13:53:43;;;;;;;6.78;1.55;;;;;;;;;;4978587;28;20172;-59
2021/01/22 13:56:09;;;;;;;6.28;1.38;;;;;;;;;;4997337;28;20047;-60
2021/01/22 13:58:38;;;;;;;8.57;1.50;;;;;;;;;;4962496;28;20039;-60
2021/01/22 14:01:04;;;;;;;13.68;1.52;;;;;;;;;;4984680;28;20046;-60
2021/01/22 14:03:30;;;;;;;11.75;1.90;;;;;;;;;;4979562;28;20053;-61
2021/01/22 14:05:56;;;;;;;3.88;1.17;;;;;;;;;;5009856;28;20066;-61
2021/01/22 14:08:22;;;;;;;7.68;1.63;;;;;;;;;;4984952;28;20052;-60
2021/01/22 14:10:48;;;;;;;8.30;1.48;;;;;;;;;;4966623;28;20078;-61
2021/01/22 14:13:14;;;;;;;9.52;1.63;;;;;;;;;;4964360;28;20053;-61
2021/01/22 14:15:41;;;;;;;6.82;1.25;;;;;;;;;;4964335;28;20075;-61
2021/01/22 14:18:07;;;;;;;16.02;1.55;;;;;;;;;;4966469;28;20053;-61
2021/01/22 14:20:34;;;;;;;5.78;1.67;;;;;;;;;;4962958;28;20043;-61
2021/01/22 14:23:00;;;;;;;7.13;1.13;;;;;;;;;;4980867;28;20048;-61
2021/01/22 14:25:29;;;;;;;5.85;1.40;;;;;;;;;;4997826;28;20076;-60
2021/01/22 14:27:55;;;;;;;8.10;1.27;;;;;;;;;;4975823;28;20210;-61
2021/01/22 14:30:22;;;;;;;7.15;1.70;;;;;;;;;;4979071;28;20042;-60
2021/01/22 14:32:48;;;;;;;8.68;1.70;;;;;;;;;;4982693;28;20055;-60
2021/01/22 14:35:14;;;;;;;11.73;2.20;;;;;;;;;;4965358;28;20093;-60
2021/01/22 14:37:40;;;;;;;10.77;2.05;;;;;;;;;;4985874;28;20070;-61
2021/01/22 14:40:07;;;;;;;11.13;1.38;;;;;;;;;;5004496;28;20046;-61
2021/01/22 14:42:33;;;;;;;8.88;1.25;;;;;;;;;;4996376;28;20050;-61